Time;durP1;ratioP1;P1;durP2;ratioP2;P2;SDS_P1;SDS_P2;PMS_P1;PMS_P2;Temp;Humidity;BMP_temperature;BMP_pressure;BME280_temperature;BME280_humidity;BME280_pressure;Samples;Min_cycle;Max_cycle;Signal;HPM_P1;HPM_P2
2022/04/02 00:00:13;;;;;;;4.95;2.80;;;;;;;16.57;45.23;101777.19;5019868;28;20056;-51
2022/04/02 00:02:39;;;;;;;5.93;2.67;;;;;;;16.58;45.03;101789.59;5024100;28;20365;-49
2022/04/02 00:05:06;;;;;;;4.82;2.63;;;;;;;16.57;45.54;101782.53;5026812;28;20058;-51
2022/04/02 00:07:33;;;;;;;7.20;2.70;;;;;;;16.56;45.06;101775.44;5026693;28;20059;-50
2022/04/02 00:09:59;;;;;;;4.70;2.47;;;;;;;16.55;45.55;101779.13;5024021;28;20033;-47
2022/04/02 00:12:26;;;;;;;7.50;3.03;;;;;;;16.53;44.78;101773.91;5026233;28;20053;-48
2022/04/02 00:14:52;;;;;;;4.18;2.42;;;;;;;16.53;45.08;101779.25;5023925;28;20456;-49
2022/04/02 00:17:19;;;;;;;3.38;2.22;;;;;;;16.53;44.55;101783.75;5023473;28;20068;-48
2022/04/02 00:19:46;;;;;;;3.45;2.35;;;;;;;16.53;44.45;101783.75;5025158;28;20234;-47
2022/04/02 00:22:13;;;;;;;4.90;2.35;;;;;;;16.52;45.54;101779.34;5023876;28;20057;-52
2022/04/02 00:24:39;;;;;;;4.75;2.55;;;;;;;16.52;44.56;101779.34;5029949;28;20049;-49
2022/04/02 00:27:06;;;;;;;4.13;2.42;;;;;;;16.50;45.27;101779.47;5023160;28;20265;-49
2022/04/02 00:29:34;;;;;;;4.88;2.30;;;;;;;16.49;44.89;101782.28;5019263;28;20132;-50
2022/04/02 00:32:00;;;;;;;4.32;2.60;;;;;;;16.49;44.74;101787.63;5019906;28;20133;-49
2022/04/02 00:34:27;;;;;;;6.25;2.03;;;;;;;16.46;45.32;101778.03;5023218;28;20049;-50
2022/04/02 00:36:53;;;;;;;5.40;2.53;;;;;;;16.46;44.58;101780.69;5022859;28;20054;-51
2022/04/02 00:39:20;;;;;;;3.30;1.88;;;;;;;16.45;45.13;101779.00;5021070;28;20153;-51
2022/04/02 00:41:46;;;;;;;3.58;1.83;;;;;;;16.45;44.36;101784.34;5026459;28;20077;-52
2022/04/02 00:44:17;;;;;;;3.90;2.10;;;;;;;16.45;44.35;101776.31;5025271;28;20136;-48
2022/04/02 00:46:44;;;;;;;4.72;2.08;;;;;;;16.44;45.30;101779.97;5020451;28;20053;-49
2022/04/02 00:49:13;;;;;;;3.25;1.98;;;;;;;16.42;45.36;101783.72;5024132;28;20037;-52
2022/04/02 00:51:43;;;;;;;3.80;1.90;;;;;;;16.40;45.13;101778.50;5023076;28;20460;-51
2022/04/02 00:54:13;;;;;;;3.38;2.10;;;;;;;16.41;44.96;101782.88;5024841;28;20073;-47
2022/04/02 00:56:41;;;;;;;2.92;1.77;;;;;;;16.40;44.87;101781.19;5029453;28;20337;-50
2022/04/02 00:59:10;;;;;;;3.38;1.77;;;;;;;16.38;44.28;101785.78;5024937;28;20042;-48
2022/04/02 01:01:37;;;;;;;2.42;1.50;;;;;;;16.39;44.60;101783.97;5022345;28;20408;-53
2022/04/02 01:04:06;;;;;;;3.00;1.75;;;;;;;16.37;44.86;101784.09;5020278;28;20054;-52
2022/04/02 01:06:33;;;;;;;3.38;1.67;;;;;;;16.35;45.00;101783.34;5023236;28;20128;-52
2022/04/02 01:09:03;;;;;;;2.70;1.50;;;;;;;16.35;44.84;101795.88;5022468;28;20171;-51
2022/04/02 01:11:38;;;;;;;3.17;1.90;;;;;;;16.34;44.36;101796.84;5021810;28;20049;-52
2022/04/02 01:14:05;;;;;;;4.35;1.45;;;;;;;16.34;44.29;101792.34;5024236;28;20131;-51
2022/04/02 01:16:33;;;;;;;4.07;1.70;;;;;;;16.32;44.94;101790.75;5023639;28;20368;-53
2022/04/02 01:19:01;;;;;;;4.43;1.60;;;;;;;16.32;44.56;101801.47;5021841;28;20053;-52
2022/04/02 01:21:29;;;;;;;2.63;1.40;;;;;;;16.32;44.56;101796.13;5023534;28;20440;-52
2022/04/02 01:23:56;;;;;;;2.25;1.48;;;;;;;16.31;44.50;101795.25;5020810;28;20075;-52
2022/04/02 01:26:23;;;;;;;2.35;1.40;;;;;;;16.30;44.85;101793.56;5025150;28;20045;-47
2022/04/02 01:28:58;;;;;;;2.80;1.50;;;;;;;16.31;45.21;101808.63;5017385;28;20158;-50
2022/04/02 01:31:25;;;;;;;2.63;1.45;;;;;;;16.28;44.84;101791.03;5019707;28;20041;-51
2022/04/02 01:33:53;;;;;;;2.83;1.52;;;;;;;16.28;44.90;101793.69;5025081;28;20164;-52
2022/04/02 01:36:20;;;;;;;2.75;1.55;;;;;;;16.28;44.92;101791.03;5021308;28;20055;-52
2022/04/02 01:38:48;;;;;;;4.13;1.50;;;;;;;16.28;44.93;101796.38;5022619;28;20339;-51
2022/04/02 01:41:15;;;;;;;3.20;1.30;;;;;;;16.27;45.07;101794.66;5022743;28;20607;-51
2022/04/02 01:43:42;;;;;;;4.15;1.50;;;;;;;16.24;44.77;101786.88;5023122;28;20056;-50
2022/04/02 01:46:09;;;;;;;2.35;1.38;;;;;;;16.24;44.89;101794.03;5026304;28;20068;-52
2022/04/02 01:48:36;;;;;;;1.83;1.05;;;;;;;16.22;45.39;101791.47;5022757;28;20049;-50
2022/04/02 01:51:03;;;;;;;2.95;1.20;;;;;;;16.22;45.57;101793.31;5021934;28;20124;-52
2022/04/02 01:53:31;;;;;;;1.75;1.00;;;;;;;16.21;45.51;101791.63;5026562;28;20405;-52
2022/04/02 01:55:57;;;;;;;2.92;1.20;;;;;;;16.19;45.07;101791.72;5019686;28;20140;-48
2022/04/02 01:58:24;;;;;;;2.33;1.20;;;;;;;16.19;44.62;101799.75;5022106;28;20060;-52
2022/04/02 02:00:51;;;;;;;3.25;1.27;;;;;;;16.18;44.84;101800.72;5022725;28;20067;-48
2022/04/02 02:03:18;;;;;;;3.25;1.38;;;;;;;16.17;44.62;101801.69;5026312;28;20054;-49
2022/04/02 02:05:45;;;;;;;2.53;1.40;;;;;;;16.17;45.31;101807.03;5017284;28;20050;-50
2022/04/02 02:08:12;;;;;;;2.13;1.30;;;;;;;16.16;45.65;101808.03;5023477;28;20131;-51
2022/04/02 02:10:38;;;;;;;2.40;0.95;;;;;;;16.14;45.21;101807.28;5026404;28;20046;-51
2022/04/02 02:13:05;;;;;;;1.75;1.13;;;;;;;16.16;45.17;101808.03;5019732;28;20076;-48
2022/04/02 02:15:31;;;;;;;1.73;1.20;;;;;;;16.15;44.78;101803.63;5026429;28;20057;-53
2022/04/02 02:17:58;;;;;;;1.52;0.90;;;;;;;16.15;45.47;101805.44;5019386;28;20087;-51
2022/04/02 02:20:24;;;;;;;2.60;1.25;;;;;;;16.13;44.45;101808.25;5020539;28;20047;-49
2022/04/02 02:22:51;;;;;;;2.13;1.08;;;;;;;16.13;45.49;101812.75;5020577;28;20064;-50
2022/04/02 02:25:18;;;;;;;1.15;0.93;;;;;;;16.13;45.25;101815.41;5025166;28;20136;-47
2022/04/02 02:27:45;;;;;;;1.63;0.90;;;;;;;16.12;44.95;101822.59;5023760;28;20181;-50
2022/04/02 02:30:13;;;;;;;2.30;1.00;;;;;;;16.11;45.56;101812.84;5016005;28;20068;-49
2022/04/02 02:32:40;;;;;;;2.20;1.10;;;;;;;16.10;45.55;101813.81;5024239;28;20045;-51
2022/04/02 02:38:09;;;;;;;1.02;0.93;;;;;;;16.08;45.54;101813.09;5021570;28;20053;-50
2022/04/02 02:40:37;;;;;;;1.10;1.00;;;;;;;16.08;45.37;101809.56;5022874;28;20176;-51
2022/04/02 02:43:05;;;;;;;2.15;1.17;;;;;;;16.08;44.63;101810.44;5025657;28;20133;-48
2022/04/02 02:45:33;;;;;;;1.70;0.90;;;;;;;16.06;44.75;101815.03;5022577;28;20053;-47
2022/04/02 02:48:02;;;;;;;1.70;1.02;;;;;;;16.06;44.73;101817.69;5019967;28;20429;-49
2022/04/02 02:50:33;;;;;;;1.98;0.98;;;;;;;16.06;44.53;101816.84;5018260;28;20196;-48
2022/04/02 02:53:00;;;;;;;2.53;1.65;;;;;;;16.04;44.48;101819.66;5024196;28;20140;-48
2022/04/02 02:55:28;;;;;;;3.28;1.00;;;;;;;16.03;44.41;101824.13;5021178;28;20144;-49
2022/04/02 02:57:55;;;;;;;2.53;0.80;;;;;;;16.03;44.51;101820.59;5024964;28;20052;-52
2022/04/02 03:00:22;;;;;;;1.40;0.82;;;;;;;16.02;45.04;101817.06;5022600;28;20038;-50
2022/04/02 03:02:49;;;;;;;1.33;1.00;;;;;;;16.01;44.66;101817.22;5018957;28;20050;-52
2022/04/02 03:05:16;;;;;;;1.75;0.75;;;;;;;16.01;44.92;101810.03;5023889;28;20073;-50
2022/04/02 03:07:48;;;;;;;1.67;0.90;;;;;;;16.00;44.63;101818.16;5022768;28;20738;-50
2022/04/02 03:10:17;;;;;;;2.25;0.95;;;;;;;16.00;44.89;101824.38;5018439;28;20042;-52
2022/04/02 03:12:44;;;;;;;2.13;0.80;;;;;;;16.00;45.45;101821.72;5017191;28;20144;-50
2022/04/02 03:15:12;;;;;;;1.40;1.00;;;;;;;15.99;44.98;101828.00;5022385;28;20125;-51
2022/04/02 03:17:39;;;;;;;1.27;0.90;;;;;;;15.99;44.63;101824.47;5023538;28;20328;-51
2022/04/02 03:20:07;;;;;;;0.90;0.70;;;;;;;15.97;44.41;101821.94;5019469;28;20129;-50
2022/04/02 03:22:35;;;;;;;2.22;0.80;;;;;;;15.97;44.50;101821.94;5023482;28;20050;-52
2022/04/02 03:25:02;;;;;;;1.27;0.80;;;;;;;15.96;44.89;101819.34;5021566;28;20049;-49
2022/04/02 03:27:28;;;;;;;1.27;0.73;;;;;;;15.97;44.71;101824.59;5018978;28;20052;-52
2022/04/02 03:29:55;;;;;;;1.15;0.70;;;;;;;15.94;45.23;101827.50;5019519;28;20158;-49
2022/04/02 03:32:21;;;;;;;2.33;0.98;;;;;;;15.95;45.52;101828.34;5023911;28;20045;-52
2022/04/02 03:34:48;;;;;;;1.00;0.80;;;;;;;15.93;45.54;101825.81;5021061;28;20049;-50
2022/04/02 03:37:15;;;;;;;1.45;0.65;;;;;;;15.93;45.07;101820.47;5022387;28;20469;-50
2022/04/02 03:39:41;;;;;;;0.82;0.60;;;;;;;15.92;45.21;101833.91;5022591;28;20034;-50
2022/04/02 03:42:09;;;;;;;1.02;0.82;;;;;;;15.90;44.43;101833.19;5019210;28;21220;-49
2022/04/02 03:44:35;;;;;;;1.88;0.77;;;;;;;15.90;45.54;101833.19;5023507;28;20082;-50
2022/04/02 03:47:09;;;;;;;0.95;0.70;;;;;;;15.88;44.50;101830.66;5028139;28;20400;-51
2022/04/02 03:49:40;;;;;;;0.68;0.60;;;;;;;15.88;44.85;101836.00;5027408;28;20061;-53
2022/04/02 03:52:08;;;;;;;1.70;0.80;;;;;;;15.88;45.40;101833.34;5026646;28;20104;-50
2022/04/02 03:54:36;;;;;;;1.90;0.80;;;;;;;15.87;44.51;101836.94;5019233;28;20079;-49
2022/04/02 03:57:03;;;;;;;1.63;0.90;;;;;;;15.87;44.32;101838.78;5027135;28;21410;-51
2022/04/02 03:59:30;;;;;;;1.70;0.88;;;;;;;15.86;44.44;101831.72;5028837;28;20042;-52
2022/04/02 04:01:58;;;;;;;1.77;0.95;;;;;;;15.84;44.25;101834.53;5022284;28;20057;-51
2022/04/02 04:04:25;;;;;;;1.08;0.95;;;;;;;15.85;45.28;101835.38;5022494;28;20543;-50
2022/04/02 04:06:53;;;;;;;1.60;0.80;;;;;;;15.84;44.72;101836.31;5021927;28;20060;-49
2022/04/02 04:09:20;;;;;;;1.95;0.80;;;;;;;15.84;44.75;101844.34;5024774;28;20064;-51
2022/04/02 04:11:47;;;;;;;0.93;0.80;;;;;;;15.83;45.17;101843.50;5026465;28;20153;-50
2022/04/02 04:14:15;;;;;;;1.52;0.70;;;;;;;15.83;44.76;101843.50;5024476;28;20148;-50
2022/04/02 04:16:42;;;;;;;1.45;0.80;;;;;;;15.83;44.30;101853.34;5019996;28;20513;-48
2022/04/02 04:19:09;;;;;;;1.48;0.90;;;;;;;15.81;45.29;101856.13;5020326;28;20121;-53
2022/04/02 04:21:36;;;;;;;1.30;0.65;;;;;;;15.82;45.01;101848.97;5018851;28;20447;-49
2022/04/02 04:24:06;;;;;;;1.10;0.82;;;;;;;15.81;45.22;101855.28;5026031;28;20057;-51
2022/04/02 04:26:33;;;;;;;0.93;0.80;;;;;;;15.80;44.52;101859.78;5022161;28;20042;-51
2022/04/02 04:29:00;;;;;;;0.75;0.57;;;;;;;15.81;45.23;101855.28;5021893;28;20682;-49
2022/04/02 04:31:26;;;;;;;1.38;0.80;;;;;;;15.79;45.54;101858.91;5024396;28;20049;-51
2022/04/02 04:33:53;;;;;;;0.75;0.63;;;;;;;15.79;44.58;101864.25;5020839;28;20055;-52
2022/04/02 04:36:20;;;;;;;1.73;0.80;;;;;;;15.81;45.21;101860.63;5023650;28;20064;-52
2022/04/02 04:38:47;;;;;;;0.73;0.63;;;;;;;15.78;45.28;101859.88;5024617;28;20447;-51
2022/04/02 04:41:14;;;;;;;1.73;0.75;;;;;;;15.79;44.51;101866.06;5027292;28;20756;-47
2022/04/02 04:43:41;;;;;;;0.98;0.60;;;;;;;15.77;44.93;101868.88;5023360;28;20132;-52
2022/04/02 04:46:08;;;;;;;0.60;0.60;;;;;;;15.79;44.83;101871.41;5023481;28;20375;-51
2022/04/02 04:48:35;;;;;;;0.90;0.60;;;;;;;15.78;45.37;101877.75;5024449;28;20053;-51
2022/04/02 04:51:03;;;;;;;0.77;0.60;;;;;;;15.77;44.79;101874.22;5021428;28;20072;-51
2022/04/02 04:53:30;;;;;;;1.20;0.60;;;;;;;15.77;45.26;101886.72;5024382;28;20053;-50
2022/04/02 04:55:57;;;;;;;0.68;0.60;;;;;;;15.77;44.24;101882.25;5022968;28;20037;-51
2022/04/02 04:58:24;;;;;;;1.33;0.57;;;;;;;15.75;44.81;101884.16;5026478;28;20045;-51
2022/04/02 05:00:51;;;;;;;0.73;0.68;;;;;;;15.76;44.24;101888.56;5026296;28;20041;-49
2022/04/02 05:03:18;;;;;;;1.45;0.70;;;;;;;15.76;44.98;101896.56;5028297;28;20129;-51
2022/04/02 05:05:45;;;;;;;1.02;0.70;;;;;;;15.77;44.66;101895.59;5023240;28;20070;-52
2022/04/02 05:08:11;;;;;;;0.80;0.65;;;;;;;15.81;44.42;101893.56;5022615;28;20041;-49
2022/04/02 05:10:40;;;;;;;0.70;0.60;;;;;;;15.87;45.02;101901.09;5021781;28;20059;-49
2022/04/02 05:13:11;;;;;;;1.38;0.70;;;;;;;15.95;44.55;101903.22;5020353;28;20041;-51
2022/04/02 05:15:41;;;;;;;1.25;0.80;;;;;;;16.03;44.09;101906.16;5023599;28;20055;-51
2022/04/02 05:18:09;;;;;;;1.20;0.88;;;;;;;16.12;44.45;101901.94;5022465;28;20115;-50
2022/04/02 05:20:38;;;;;;;1.00;0.60;;;;;;;16.20;44.46;101910.25;5021728;28;20037;-48
2022/04/02 05:23:06;;;;;;;3.22;0.80;;;;;;;16.28;44.46;101910.53;5025507;28;20380;-48
2022/04/02 05:25:34;;;;;;;0.80;0.80;;;;;;;16.37;44.95;101906.31;5022587;28;20316;-48
2022/04/02 05:28:04;;;;;;;0.75;0.70;;;;;;;16.44;44.69;101912.88;5026534;28;20124;-48
2022/04/02 05:30:35;;;;;;;1.15;0.80;;;;;;;16.51;44.12;101914.97;5022172;28;20131;-47
2022/04/02 05:33:01;;;;;;;0.70;0.70;;;;;;;16.59;44.98;101911.72;5019809;28;20053;-47
2022/04/02 05:35:47;;;;;;;0.73;0.73;;;;;;;16.69;44.09;101906.53;5025867;28;20083;-48
2022/04/02 05:38:14;;;;;;;1.30;0.60;;;;;;;16.74;44.34;101913.25;5024269;28;20063;-47
2022/04/02 05:40:41;;;;;;;1.75;0.80;;;;;;;16.80;44.43;101916.41;5022669;28;20123;-48
2022/04/02 05:43:07;;;;;;;2.10;0.75;;;;;;;16.87;44.08;101925.69;5022314;28;20053;-47
2022/04/02 05:45:34;;;;;;;6.13;1.00;;;;;;;16.93;43.75;101922.53;5020154;28;20037;-51
2022/04/02 05:48:00;;;;;;;8.30;3.58;;;;;;;16.99;43.95;101927.41;5019049;28;20069;-50
2022/04/02 05:50:27;;;;;;;11.75;6.03;;;;;;;17.04;44.23;101927.88;5018774;28;20328;-51
2022/04/02 05:53:03;;;;;;;11.05;6.55;;;;;;;17.11;43.86;101931.78;5016504;28;20054;-52
2022/04/02 05:55:31;;;;;;;9.07;6.20;;;;;;;17.14;44.16;101926.19;5020161;28;20052;-51
2022/04/02 05:57:58;;;;;;;11.93;6.35;;;;;;;17.18;43.89;101940.22;5020382;28;20057;-51
2022/04/02 06:00:25;;;;;;;7.35;5.07;;;;;;;17.21;43.06;101940.81;5019866;28;20437;-48
2022/04/02 06:02:58;;;;;;;6.50;4.93;;;;;;;17.22;43.65;101934.47;5018804;28;20049;-49
2022/04/02 06:05:24;;;;;;;8.65;4.75;;;;;;;17.23;43.23;101935.31;5017428;28;20046;-48
2022/04/02 06:07:51;;;;;;;6.18;4.18;;;;;;;17.24;43.16;101950.41;5015442;28;20049;-48
2022/04/02 06:10:17;;;;;;;7.72;4.43;;;;;;;17.23;42.72;101949.56;5019296;28;20132;-48
2022/04/02 06:12:44;;;;;;;10.80;5.22;;;;;;;17.24;42.62;101961.13;5022156;28;20140;-50
2022/04/02 06:15:10;;;;;;;8.63;4.90;;;;;;;17.22;42.67;101960.41;5021865;28;20421;-48
2022/04/02 06:17:37;;;;;;;14.10;7.18;;;;;;;17.18;43.07;101965.16;5019283;28;20053;-51
2022/04/02 06:20:06;;;;;;;14.85;7.60;;;;;;;17.15;42.79;101960.03;5018935;28;20049;-51
2022/04/02 06:22:34;;;;;;;13.57;7.53;;;;;;;17.12;42.55;101971.00;5024670;28;20058;-52
2022/04/02 06:25:01;;;;;;;14.93;8.48;;;;;;;17.10;42.43;101969.44;5017920;28;20057;-49
2022/04/02 06:27:27;;;;;;;15.50;9.23;;;;;;;17.06;42.89;101966.13;5025943;28;20049;-52
2022/04/02 06:29:57;;;;;;;17.95;10.18;;;;;;;17.02;42.17;101968.19;5016191;28;20330;-52
2022/04/02 06:32:24;;;;;;;19.55;10.38;;;;;;;17.00;42.06;101969.28;5020022;28;20046;-53
2022/04/02 06:34:52;;;;;;;19.08;11.23;;;;;;;16.96;42.03;101974.00;5023771;28;20045;-47
2022/04/02 06:37:19;;;;;;;23.30;12.85;;;;;;;16.94;42.08;101980.47;5020527;28;20514;-50
2022/04/02 06:39:45;;;;;;;21.52;12.55;;;;;;;16.92;42.61;101983.25;5022184;28;20058;-48
2022/04/02 06:42:12;;;;;;;24.83;12.32;;;;;;;16.90;41.94;101982.53;5021683;28;20294;-49
2022/04/02 06:44:39;;;;;;;24.38;13.77;;;;;;;16.90;42.16;101995.94;5016979;28;20133;-50
2022/04/02 06:47:06;;;;;;;21.80;13.00;;;;;;;16.91;42.39;101991.41;5018495;28;20140;-51
2022/04/02 06:49:32;;;;;;;24.27;12.80;;;;;;;16.90;42.44;101993.25;5018803;28;20049;-52
2022/04/02 06:51:59;;;;;;;20.73;12.73;;;;;;;16.91;42.56;101994.94;5023052;28;20121;-50
2022/04/02 06:54:26;;;;;;;20.55;11.48;;;;;;;16.92;42.09;101999.31;5021198;28;20046;-52
2022/04/02 06:56:53;;;;;;;21.65;11.73;;;;;;;16.95;42.46;102003.59;5020761;28;20129;-48
2022/04/02 06:59:19;;;;;;;22.35;12.38;;;;;;;16.95;42.35;102009.81;5022408;28;20523;-48
2022/04/02 07:01:46;;;;;;;18.73;11.18;;;;;;;16.97;42.16;102015.06;5020529;28;20048;-52
2022/04/02 07:04:12;;;;;;;21.33;12.30;;;;;;;16.98;42.01;102012.25;5023106;28;20087;-52
2022/04/02 07:06:44;;;;;;;18.55;10.40;;;;;;;16.99;42.02;102015.78;5026936;28;20179;-50
2022/04/02 07:09:12;;;;;;;18.60;11.02;;;;;;;16.97;42.54;102020.41;5022801;28;20050;-48
2022/04/02 07:11:39;;;;;;;19.10;11.25;;;;;;;16.98;42.31;102022.13;5023927;28;20073;-49
2022/04/02 07:14:05;;;;;;;17.75;10.55;;;;;;;16.97;42.44;102029.31;5020097;28;20041;-50
2022/04/02 07:16:32;;;;;;;18.05;10.48;;;;;;;16.96;42.02;102022.22;5026424;28;20060;-51
2022/04/02 07:19:00;;;;;;;16.10;9.70;;;;;;;16.96;42.19;102022.22;5023882;28;20052;-48
2022/04/02 07:21:28;;;;;;;18.02;10.35;;;;;;;16.95;41.84;102023.19;5025881;28;20037;-49
2022/04/02 07:23:56;;;;;;;15.65;9.45;;;;;;;16.95;42.46;102030.38;5024999;28;20133;-51
2022/04/02 07:26:24;;;;;;;16.15;9.38;;;;;;;16.95;42.21;102033.06;5024609;28;20041;-51
2022/04/02 07:28:51;;;;;;;16.48;9.38;;;;;;;16.94;42.04;102026.00;5022080;28;20409;-50
2022/04/02 07:31:18;;;;;;;15.82;9.18;;;;;;;16.92;41.66;102028.78;5029611;28;20450;-50
2022/04/02 07:33:45;;;;;;;16.60;8.85;;;;;;;16.92;41.95;102033.28;5026339;28;20041;-51
2022/04/02 07:36:35;;;;;;;14.82;8.85;;;;;;;16.89;42.40;102042.44;5025916;28;20068;-51
2022/04/02 07:39:17;;;;;;;14.68;8.98;;;;;;;16.87;42.76;102043.50;5024084;28;20321;-50
2022/04/02 07:42:11;;;;;;;14.57;8.90;;;;;;;16.87;42.44;102038.16;5023755;28;20060;-49
2022/04/02 07:44:49;;;;;;;13.95;7.85;;;;;;;16.85;42.49;102043.63;5029502;28;20127;-51
2022/04/02 07:47:18;;;;;;;12.88;7.82;;;;;;;16.85;42.59;102054.34;5028013;28;20088;-49
2022/04/02 07:49:46;;;;;;;14.02;7.97;;;;;;;16.84;42.75;102051.75;5022145;28;20152;-48
2022/04/02 07:52:14;;;;;;;14.57;8.35;;;;;;;16.83;42.12;102050.91;5024866;28;20133;-49
2022/04/02 07:54:42;;;;;;;16.75;8.45;;;;;;;16.83;42.34;102058.94;5023544;28;20172;-51
2022/04/02 07:57:10;;;;;;;12.65;8.00;;;;;;;16.85;41.92;102056.16;5026426;28;20077;-50
2022/04/02 07:59:42;;;;;;;14.40;8.00;;;;;;;16.85;42.68;102056.16;5025607;28;20148;-49
2022/04/02 08:02:36;;;;;;;11.75;7.97;;;;;;;16.85;42.12;102057.03;5025919;28;20067;-52
2022/04/02 08:05:02;;;;;;;12.15;7.25;;;;;;;16.87;42.90;102059.56;5021330;28;20163;-50
2022/04/02 08:07:30;;;;;;;13.27;7.53;;;;;;;16.90;42.32;102064.69;5022475;28;20127;-48
2022/04/02 08:09:58;;;;;;;11.63;6.80;;;;;;;16.93;42.21;102069.84;5021547;28;20136;-52
2022/04/02 08:12:25;;;;;;;12.20;7.13;;;;;;;16.96;42.40;102066.91;5021565;28;20279;-48
2022/04/02 08:14:53;;;;;;;12.43;6.82;;;;;;;16.98;42.82;102068.50;5021333;28;20044;-51
2022/04/02 08:17:21;;;;;;;14.90;6.90;;;;;;;17.02;42.91;102066.44;5025056;28;20140;-49
2022/04/02 08:19:50;;;;;;;12.95;7.13;;;;;;;17.04;42.42;102067.16;5026791;28;20728;-50
2022/04/02 08:22:17;;;;;;;12.75;7.10;;;;;;;17.07;41.76;102064.25;5028808;28;20439;-50
2022/04/02 08:24:44;;;;;;;11.88;6.70;;;;;;;17.10;42.57;102071.22;5023365;28;20053;-52
2022/04/02 08:27:22;;;;;;;13.82;7.43;;;;;;;17.12;42.57;102075.47;5023412;28;20145;-50
2022/04/02 08:30:02;;;;;;;13.05;7.20;;;;;;;17.16;42.10;102071.56;4982570;28;20112;-51
2022/04/02 08:32:59;;;;;;;16.15;7.30;;;;;;;17.22;41.93;102075.63;5008515;28;20053;-58
2022/04/02 08:35:52;;;;;;;12.93;6.28;;;;;;;17.28;41.10;102077.81;4987547;28;20045;-60
2022/04/02 08:38:34;;;;;;;12.00;6.72;;;;;;;17.34;40.91;102081.88;4988205;28;20118;-53
2022/04/02 08:41:31;;;;;;;13.30;7.20;;;;;;;17.39;41.63;102080.53;4994692;28;20321;-53
2022/04/02 08:44:32;;;;;;;13.25;6.88;;;;;;;17.44;40.82;102090.88;4989463;28;20416;-53
2022/04/02 08:47:26;;;;;;;12.70;7.38;;;;;;;17.50;41.33;102096.63;4983821;28;20156;-52
2022/04/02 08:50:12;;;;;;;13.85;7.80;;;;;;;17.57;41.36;102085.41;4958090;28;20054;-55
2022/04/02 08:52:56;;;;;;;18.13;8.60;;;;;;;17.66;41.49;102101.66;4994003;28;20037;-55
2022/04/02 08:55:36;;;;;;;17.23;8.50;;;;;;;17.75;41.04;102092.91;4992748;28;20265;-54
2022/04/02 08:58:10;;;;;;;17.00;9.13;;;;;;;17.84;40.92;102094.00;4995083;28;20049;-56
2022/04/02 09:00:54;;;;;;;21.02;9.70;;;;;;;17.92;40.65;102096.06;4996852;28;20401;-53
2022/04/02 09:03:33;;;;;;;17.60;9.77;;;;;;;17.99;40.63;102110.72;4997900;28;20057;-57
2022/04/02 09:06:06;;;;;;;15.60;9.57;;;;;;;18.06;40.88;102103.88;4990834;28;20046;-51
2022/04/02 09:08:50;;;;;;;17.92;9.82;;;;;;;18.12;40.49;102100.69;4991873;28;20052;-51
2022/04/02 09:11:54;;;;;;;19.02;9.88;;;;;;;18.18;40.19;102113.63;4945571;28;20055;-54
2022/04/02 09:14:27;;;;;;;16.83;9.65;;;;;;;18.26;40.33;102113.03;4994238;28;20062;-52
2022/04/02 09:17:02;;;;;;;17.90;9.43;;;;;;;18.33;40.26;102116.91;4992384;28;20053;-51
2022/04/02 09:20:13;;;;;;;17.02;9.55;;;;;;;18.40;40.33;102112.72;4996936;28;20064;-50
2022/04/02 09:23:07;;;;;;;17.80;8.82;;;;;;;18.48;39.62;102120.16;4984969;28;20081;-53
2022/04/02 09:25:42;;;;;;;16.25;8.68;;;;;;;18.53;40.01;102112.56;4996344;28;20050;-52
2022/04/02 09:28:40;;;;;;;14.70;8.43;;;;;;;18.59;39.91;102105.88;4996654;28;20352;-61
2022/04/02 09:31:15;;;;;;;16.00;9.15;;;;;;;18.63;39.73;102118.06;4959524;28;20536;-58
2022/04/02 09:34:15;;;;;;;14.70;8.45;;;;;;;18.67;39.41;102128.41;4993869;28;20049;-59
2022/04/02 09:40:08;;;;;;;14.77;8.48;;;;;;;18.89;39.78;102115.91;4920170;29;20043;-62
2022/04/02 09:42:50;;;;;;;13.27;8.40;;;;;;;18.98;39.73;102128.59;4910809;29;20051;-62
2022/04/02 09:45:20;;;;;;;14.40;7.88;;;;;;;19.04;38.78;102127.22;4918112;29;20131;-62
2022/04/02 09:48:15;;;;;;;12.85;7.20;;;;;;;19.03;38.99;102129.06;4936095;29;20051;-62
2022/04/02 09:53:23;;;;;;;12.30;6.63;;;;;;;19.05;39.23;102123.53;4964355;28;20441;-57
2022/04/02 09:56:01;;;;;;;9.50;5.90;;;;;;;19.03;39.05;102117.47;4978626;28;20177;-58
2022/04/02 09:58:46;;;;;;;12.18;6.45;;;;;;;19.01;38.97;102122.94;4973845;28;20096;-58
2022/04/02 10:01:25;;;;;;;11.20;6.50;;;;;;;18.95;38.54;102121.63;4977525;28;20045;-59
2022/04/02 10:03:57;;;;;;;11.10;5.70;;;;;;;18.95;39.14;102126.16;4976756;28;20141;-58
2022/04/02 10:06:25;;;;;;;11.68;5.97;;;;;;;18.93;38.65;102130.78;4973631;28;20069;-59
2022/04/02 10:09:04;;;;;;;9.52;5.80;;;;;;;18.93;38.63;102122.72;4976586;28;20054;-59
2022/04/02 10:11:33;;;;;;;12.30;6.45;;;;;;;18.92;38.51;102134.47;4933956;28;20141;-59
2022/04/02 10:14:01;;;;;;;12.15;6.50;;;;;;;18.90;38.59;102134.63;4972600;28;20173;-58
2022/04/02 10:16:29;;;;;;;9.68;6.13;;;;;;;18.91;38.91;102132.78;4971625;28;20273;-59
2022/04/02 10:18:58;;;;;;;8.85;5.30;;;;;;;18.89;38.62;102132.88;4978533;28;20750;-58
2022/04/02 10:21:27;;;;;;;11.90;5.75;;;;;;;18.87;38.54;102128.63;4975876;28;20340;-60
2022/04/02 10:24:00;;;;;;;8.88;5.30;;;;;;;18.87;38.62;102124.13;4975679;28;20205;-58
2022/04/02 10:26:37;;;;;;;9.93;5.25;;;;;;;18.90;38.48;102123.88;4979417;28;20374;-59
2022/04/02 10:29:12;;;;;;;10.35;5.47;;;;;;;18.96;38.67;102117.97;4979417;28;20059;-60
2022/04/02 10:31:47;;;;;;;8.65;5.45;;;;;;;19.01;38.68;102111.34;4926222;28;20051;-58
2022/04/02 10:34:46;;;;;;;12.38;5.93;;;;;;;19.00;38.34;102110.50;4981024;28;20181;-58
2022/04/02 10:37:15;;;;;;;9.52;4.72;;;;;;;18.99;38.27;102116.88;4982205;28;20050;-59
2022/04/02 10:40:00;;;;;;;7.95;4.95;;;;;;;18.99;38.05;102114.19;4979777;28;20160;-59
2022/04/02 10:42:40;;;;;;;8.13;5.05;;;;;;;18.95;38.46;102105.50;4976193;28;20066;-59
2022/04/02 10:45:11;;;;;;;8.63;4.60;;;;;;;18.97;38.67;102116.13;4979023;28;20327;-60
2022/04/02 10:47:45;;;;;;;9.85;5.25;;;;;;;18.96;38.23;102114.44;4977086;28;20345;-59
2022/04/02 10:50:16;;;;;;;9.05;4.30;;;;;;;18.95;38.47;102118.94;4941548;28;20054;-59
2022/04/02 10:52:50;;;;;;;8.73;4.82;;;;;;;18.95;38.22;102123.47;4965375;28;20062;-60
2022/04/02 10:55:20;;;;;;;9.13;5.10;;;;;;;18.91;38.27;102117.50;4962197;28;20497;-62
2022/04/02 10:57:47;;;;;;;9.73;5.10;;;;;;;18.90;38.18;102112.28;4960543;28;20427;-59
2022/04/02 11:00:14;;;;;;;9.05;5.43;;;;;;;18.86;37.63;102119.72;4962541;28;20057;-59
2022/04/02 11:02:46;;;;;;;7.03;4.65;;;;;;;18.85;37.57;102126.06;4959831;28;20133;-60
2022/04/02 11:05:14;;;;;;;7.78;4.00;;;;;;;18.84;37.43;102124.34;4958616;28;20381;-60
2022/04/02 11:07:44;;;;;;;7.50;4.30;;;;;;;18.84;37.21;102123.50;4961290;28;20135;-58
2022/04/02 11:10:14;;;;;;;8.30;4.40;;;;;;;18.83;37.51;102128.03;4924155;28;20157;-60
2022/04/02 11:12:44;;;;;;;9.60;4.75;;;;;;;18.84;38.10;102128.88;4962844;28;20432;-60
2022/04/02 11:15:19;;;;;;;7.43;4.38;;;;;;;18.83;38.59;102141.47;4956956;28;20074;-60
2022/04/02 11:17:51;;;;;;;6.05;4.10;;;;;;;18.84;38.34;102139.63;4960064;28;20059;-60
2022/04/02 11:20:23;;;;;;;8.43;4.70;;;;;;;18.85;38.69;102135.94;4957405;28;20045;-60
2022/04/02 11:22:57;;;;;;;8.40;4.80;;;;;;;18.87;38.70;102137.53;4953822;28;20136;-61
2022/04/02 11:25:34;;;;;;;8.25;4.80;;;;;;;18.91;38.66;102133.63;4958568;28;20130;-62
2022/04/02 11:28:16;;;;;;;8.07;4.78;;;;;;;18.97;38.58;102126.88;4962012;28;20093;-60
2022/04/02 11:30:49;;;;;;;8.68;4.30;;;;;;;19.02;38.75;102130.03;4924957;28;20086;-60
2022/04/02 11:33:24;;;;;;;8.02;4.35;;;;;;;19.09;39.05;102125.00;4963393;28;20522;-60
2022/04/02 11:36:06;;;;;;;6.93;4.38;;;;;;;19.15;38.69;102129.88;4957850;28;20113;-60
2022/04/02 11:38:39;;;;;;;6.22;3.90;;;;;;;19.19;38.87;102121.41;4957981;28;20478;-60
2022/04/02 11:41:30;;;;;;;7.68;4.70;;;;;;;19.22;38.21;102125.69;4961894;28;20445;-60
2022/04/02 11:44:15;;;;;;;7.82;4.05;;;;;;;19.28;38.65;102121.59;4960129;28;20066;-59
2022/04/02 11:47:01;;;;;;;6.28;4.07;;;;;;;19.31;38.43;102114.13;4958190;28;20267;-58